createdAt,value
2022-09-20T00:01:09.062Z,1.55
2022-09-20T00:03:46.697Z,2.20
2022-09-20T00:06:26.050Z,1.80
2022-09-20T00:08:53.459Z,4.03
2022-09-20T00:11:26.728Z,1.83
2022-09-20T00:13:56.372Z,3.00
2022-09-20T00:16:31.307Z,1.88
2022-09-20T00:19:01.023Z,4.50
2022-09-20T00:21:30.317Z,2.78
2022-09-20T00:23:58.190Z,2.92
2022-09-20T00:26:26.803Z,4.05
2022-09-20T00:28:54.144Z,7.95
2022-09-20T00:31:21.369Z,16.42
2022-09-20T00:34:07.355Z,28.73
2022-09-20T00:36:34.530Z,12.27
2022-09-20T00:39:04.620Z,5.07
2022-09-20T00:41:32.763Z,3.90
2022-09-20T00:44:00.622Z,3.20
2022-09-20T00:46:29.828Z,2.83
2022-09-20T00:49:03.620Z,2.00
2022-09-20T00:51:35.004Z,3.80
2022-09-20T00:54:04.908Z,2.05
2022-09-20T00:56:34.813Z,2.58
2022-09-20T00:59:13.504Z,1.83
2022-09-20T01:01:41.457Z,2.55
2022-09-20T01:04:08.910Z,2.17
2022-09-20T01:06:36.489Z,3.58
2022-09-20T01:09:07.277Z,2.20
2022-09-20T01:11:36.347Z,3.45
2022-09-20T01:14:03.650Z,3.78
2022-09-20T01:16:32.668Z,2.13
2022-09-20T01:19:04.704Z,3.45
2022-09-20T01:21:32.037Z,1.70
2022-09-20T01:24:27.721Z,1.10
2022-09-20T01:27:09.805Z,4.25
2022-09-20T01:30:02.167Z,3.08
2022-09-20T01:32:42.788Z,3.33
2022-09-20T01:35:11.614Z,3.25
2022-09-20T01:37:56.756Z,7.95
2022-09-20T01:40:59.585Z,3.88
2022-09-20T01:43:51.054Z,2.47
2022-09-20T01:46:32.777Z,2.05
2022-09-20T01:49:17.195Z,2.58
2022-09-20T01:52:14.368Z,2.55
2022-09-20T01:55:02.961Z,1.83
2022-09-20T01:57:38.595Z,1.70
2022-09-20T02:00:07.503Z,2.85
2022-09-20T02:02:55.542Z,2.60
2022-09-20T02:05:53.020Z,2.08
2022-09-20T02:08:44.093Z,2.88
2022-09-20T02:11:18.569Z,3.55
2022-09-20T02:13:53.886Z,4.20
2022-09-20T02:16:29.544Z,3.90
2022-09-20T02:19:29.034Z,3.05
2022-09-20T02:22:01.755Z,5.40
2022-09-20T02:24:35.557Z,4.13
2022-09-20T02:27:21.003Z,5.28
2022-09-20T02:29:54.613Z,5.13
2022-09-20T02:32:54.350Z,5.65
2022-09-20T02:35:50.225Z,3.80
2022-09-20T02:38:24.549Z,5.00
2022-09-20T02:43:26.922Z,3.42
2022-09-20T02:48:25.096Z,3.03
2022-09-20T02:51:00.559Z,2.42
2022-09-20T02:53:35.425Z,1.35
2022-09-20T02:56:02.858Z,2.13
2022-09-20T02:59:00.457Z,4.40
2022-09-20T03:02:05.299Z,2.95
2022-09-20T03:04:41.525Z,1.70
2022-09-20T03:07:11.118Z,3.10
2022-09-20T03:09:39.171Z,5.15
2022-09-20T03:12:25.643Z,3.75
2022-09-20T03:15:11.490Z,4.10
2022-09-20T03:17:50.941Z,2.13
2022-09-20T03:20:25.442Z,2.25
2022-09-20T03:22:53.366Z,3.92
2022-09-20T03:25:36.803Z,2.40
2022-09-20T03:28:10.087Z,3.15
2022-09-20T03:30:56.395Z,3.03
2022-09-20T03:33:34.074Z,3.00
2022-09-20T03:36:01.806Z,2.75
2022-09-20T03:38:32.181Z,2.92
2022-09-20T03:41:17.701Z,2.22
2022-09-20T03:44:05.547Z,4.07
2022-09-20T03:46:48.441Z,2.45
2022-09-20T03:49:36.985Z,2.10
2022-09-20T03:52:35.576Z,2.22
2022-09-20T03:55:24.424Z,2.22
2022-09-20T03:57:58.363Z,1.45
2022-09-20T04:00:35.198Z,3.78
2022-09-20T04:03:14.862Z,2.40
2022-09-20T04:05:42.299Z,2.08
2022-09-20T04:08:26.807Z,3.03
2022-09-20T04:16:10.450Z,2.30
2022-09-20T04:18:59.836Z,4.28
2022-09-20T04:21:42.590Z,2.47
2022-09-20T04:24:18.321Z,3.10
2022-09-20T04:26:48.750Z,3.72
2022-09-20T04:29:35.125Z,5.15
2022-09-20T04:32:11.428Z,4.35
2022-09-20T04:35:05.070Z,4.18
2022-09-20T04:37:33.722Z,3.35
2022-09-20T04:40:15.998Z,3.95
2022-09-20T04:42:54.779Z,3.38
2022-09-20T04:45:32.560Z,3.78
2022-09-20T04:48:03.410Z,3.35
2022-09-20T04:50:43.088Z,3.42
2022-09-20T04:53:20.299Z,3.03
2022-09-20T04:55:53.016Z,2.88
2022-09-20T04:58:20.565Z,6.55
2022-09-20T05:01:03.453Z,3.50
2022-09-20T05:03:36.842Z,4.65
2022-09-20T05:06:05.354Z,8.57
2022-09-20T05:08:36.437Z,5.70
2022-09-20T05:11:31.320Z,9.38
2022-09-20T05:14:04.858Z,9.13
2022-09-20T05:16:51.179Z,7.60
2022-09-20T05:19:19.107Z,3.90
2022-09-20T05:21:51.123Z,4.05
2022-09-20T05:24:44.984Z,3.10
2022-09-20T05:27:28.604Z,4.85
2022-09-20T05:29:56.921Z,5.53
2022-09-20T05:32:36.312Z,5.53
2022-09-20T05:35:22.386Z,3.63
2022-09-20T05:38:19.318Z,3.35
2022-09-20T05:41:17.553Z,3.35
2022-09-20T05:43:53.838Z,7.55
2022-09-20T05:46:35.886Z,5.05
2022-09-20T05:49:17.911Z,2.10
2022-09-20T05:52:14.342Z,2.05
2022-09-20T05:55:03.445Z,4.32
2022-09-20T05:57:50.815Z,1.90
2022-09-20T06:00:27.952Z,2.30
2022-09-20T06:03:01.184Z,2.25
2022-09-20T06:05:40.162Z,2.78
2022-09-20T06:08:25.149Z,2.50
2022-09-20T06:11:17.631Z,4.68
2022-09-20T06:14:05.064Z,4.43
2022-09-20T06:16:55.220Z,3.83
2022-09-20T06:19:42.692Z,2.40
2022-09-20T06:22:33.277Z,1.55
2022-09-20T06:25:10.922Z,2.10
2022-09-20T06:28:08.202Z,1.60
2022-09-20T06:30:40.382Z,3.30
2022-09-20T06:33:07.362Z,3.50
2022-09-20T06:35:58.896Z,3.08
2022-09-20T06:38:50.611Z,3.42
2022-09-20T06:41:29.930Z,3.97
2022-09-20T06:43:59.599Z,2.42
2022-09-20T06:46:28.175Z,4.45
2022-09-20T06:48:56.091Z,4.30
2022-09-20T06:51:25.875Z,2.00
2022-09-20T06:53:54.940Z,2.75
2022-09-20T06:56:26.689Z,3.90
2022-09-20T06:58:54.237Z,3.83
2022-09-20T07:01:29.804Z,3.38
2022-09-20T07:03:58.509Z,3.83
2022-09-20T07:06:26.792Z,2.30
2022-09-20T07:08:53.854Z,3.80
2022-09-20T07:11:22.528Z,2.65
2022-09-20T07:13:54.922Z,2.35
2022-09-20T07:16:22.125Z,3.70
2022-09-20T07:18:52.474Z,2.28
2022-09-20T07:21:21.436Z,2.72
2022-09-20T07:23:51.415Z,2.35
2022-09-20T07:26:19.903Z,3.65
2022-09-20T07:28:47.660Z,5.55
2022-09-20T07:31:15.187Z,4.28
2022-09-20T07:33:42.186Z,5.85
2022-09-20T07:36:12.310Z,3.08
2022-09-20T07:38:40.288Z,2.25
2022-09-20T07:41:07.793Z,3.38
2022-09-20T07:43:35.328Z,3.10
2022-09-20T07:46:03.129Z,2.80
2022-09-20T07:48:34.227Z,6.15
2022-09-20T07:51:09.002Z,4.80
2022-09-20T07:53:36.941Z,4.45
2022-09-20T07:56:14.465Z,2.80
2022-09-20T07:58:42.276Z,4.28
2022-09-20T08:01:12.629Z,3.80
2022-09-20T08:03:40.520Z,4.47
2022-09-20T08:06:10.258Z,4.75
2022-09-20T08:08:39.739Z,3.95
2022-09-20T08:11:09.981Z,3.58
2022-09-20T08:16:27.373Z,3.38
2022-09-20T08:18:57.180Z,4.57
2022-09-20T08:21:26.227Z,3.58
2022-09-20T08:23:53.862Z,5.30
2022-09-20T08:26:23.555Z,3.05
2022-09-20T08:28:56.117Z,5.18
2022-09-20T08:31:25.976Z,3.40
2022-09-20T08:33:54.599Z,3.08
2022-09-20T08:36:24.638Z,5.00
2022-09-20T08:41:57.117Z,4.15
2022-09-20T08:44:35.171Z,3.63
2022-09-20T08:47:23.625Z,2.72
2022-09-20T08:49:56.992Z,3.72
2022-09-20T08:52:40.787Z,4.50
2022-09-20T08:55:18.793Z,3.70
2022-09-20T08:57:57.278Z,4.43
2022-09-20T09:00:34.163Z,4.15
2022-09-20T09:03:05.591Z,3.40
2022-09-20T09:05:53.292Z,5.72
2022-09-20T09:08:25.123Z,2.78
2022-09-20T09:10:56.432Z,2.38
2022-09-20T09:13:32.243Z,3.63
2022-09-20T09:16:02.944Z,2.25
2022-09-20T09:18:39.367Z,4.93
2022-09-20T09:21:08.582Z,2.47
2022-09-20T09:23:54.539Z,2.67
2022-09-20T09:26:24.364Z,7.63
2022-09-20T09:29:10.194Z,5.25
2022-09-20T09:31:39.331Z,3.75
2022-09-20T09:34:29.834Z,4.13
2022-09-20T09:36:58.117Z,5.40
2022-09-20T09:39:27.672Z,2.78
2022-09-20T09:41:55.787Z,2.22
2022-09-20T09:44:30.709Z,1.38
2022-09-20T09:46:58.366Z,1.27
2022-09-20T09:49:28.176Z,1.70
2022-09-20T09:52:26.880Z,3.95
2022-09-20T09:55:02.845Z,5.40
2022-09-20T09:57:59.688Z,4.30
2022-09-20T10:00:28.907Z,2.80
2022-09-20T10:03:01.769Z,2.72
2022-09-20T10:05:37.763Z,2.55
2022-09-20T10:08:14.877Z,3.88
2022-09-20T10:11:00.868Z,3.22
2022-09-20T10:13:53.277Z,3.88
2022-09-20T10:16:51.341Z,2.95
2022-09-20T10:19:22.575Z,3.72
2022-09-20T10:21:59.661Z,3.08
2022-09-20T10:24:48.580Z,1.98
2022-09-20T10:27:33.987Z,2.45
2022-09-20T10:30:23.567Z,3.20
2022-09-20T10:32:50.665Z,3.65
2022-09-20T10:35:27.562Z,3.05
2022-09-20T10:38:14.261Z,2.45
2022-09-20T10:41:40.219Z,4.45
2022-09-20T10:44:44.095Z,1.70
2022-09-20T10:47:22.732Z,2.13
2022-09-20T10:49:58.533Z,1.80
2022-09-20T10:52:40.243Z,2.33
2022-09-20T10:55:14.206Z,3.40
2022-09-20T10:57:57.585Z,4.00
2022-09-20T11:00:41.783Z,2.95
2022-09-20T11:03:27.626Z,3.63
2022-09-20T11:06:07.569Z,1.48
2022-09-20T11:08:36.895Z,1.65
2022-09-20T11:11:10.632Z,2.92
2022-09-20T11:13:53.523Z,1.27
2022-09-20T11:16:31.626Z,2.70
2022-09-20T11:19:05.759Z,1.20
2022-09-20T11:21:49.034Z,2.75
2022-09-20T11:24:16.071Z,2.47
2022-09-20T11:26:59.340Z,1.10
2022-09-20T11:29:47.693Z,1.52
2022-09-20T11:32:20.990Z,3.83
2022-09-20T11:35:04.078Z,3.70
2022-09-20T11:37:34.610Z,4.32
2022-09-20T11:40:04.952Z,1.73
2022-09-20T11:42:36.404Z,2.50
2022-09-20T11:45:04.479Z,2.88
2022-09-20T11:47:55.508Z,2.83
2022-09-20T11:50:38.650Z,1.30
2022-09-20T11:53:05.726Z,3.88
2022-09-20T11:55:39.295Z,1.38
2022-09-20T11:58:09.271Z,1.65
2022-09-20T12:00:43.599Z,0.95
2022-09-20T12:03:28.936Z,0.75
2022-09-20T12:06:05.636Z,1.63
2022-09-20T12:08:39.713Z,0.90
2022-09-20T12:13:40.789Z,0.50
2022-09-20T12:16:15.857Z,0.80
2022-09-20T12:18:55.368Z,0.85
2022-09-20T12:21:22.793Z,1.30
2022-09-20T12:23:53.565Z,1.58
2022-09-20T12:26:21.016Z,1.52
2022-09-20T12:28:52.414Z,1.30
2022-09-20T12:31:20.267Z,0.57
2022-09-20T12:34:12.239Z,1.00
2022-09-20T12:36:42.529Z,0.70
2022-09-20T12:39:11.019Z,1.98
2022-09-20T12:41:47.520Z,1.83
2022-09-20T12:44:29.697Z,2.03
2022-09-20T12:46:59.962Z,0.95
2022-09-20T12:49:48.494Z,0.80
2022-09-20T12:53:04.127Z,1.15
2022-09-20T12:56:03.018Z,0.98
2022-09-20T12:58:49.104Z,1.38
2022-09-20T13:01:16.195Z,0.90
2022-09-20T13:03:46.981Z,0.80
2022-09-20T13:06:15.593Z,0.90
2022-09-20T13:08:48.873Z,1.08
2022-09-20T13:11:18.500Z,0.77
2022-09-20T13:13:59.457Z,1.05
2022-09-20T13:16:45.775Z,1.20
2022-09-20T13:19:18.004Z,1.05
2022-09-20T13:21:53.812Z,0.77
2022-09-20T13:24:21.572Z,0.88
2022-09-20T13:26:50.195Z,0.95
2022-09-20T13:29:27.548Z,0.60
2022-09-20T13:31:56.839Z,1.08
2022-09-20T13:34:25.849Z,0.73
2022-09-20T13:36:58.241Z,0.70
2022-09-20T13:39:37.239Z,0.75
2022-09-20T13:42:11.485Z,2.47
2022-09-20T13:44:39.507Z,0.80
2022-09-20T13:47:43.375Z,1.60
2022-09-20T13:50:10.752Z,1.52
2022-09-20T13:52:44.625Z,0.70
2022-09-20T13:57:41.219Z,0.60
2022-09-20T14:00:13.528Z,1.33
2022-09-20T14:02:42.095Z,1.15
2022-09-20T14:05:16.885Z,0.98
2022-09-20T14:07:48.744Z,1.77
2022-09-20T14:10:33.605Z,0.93
2022-09-20T14:13:06.523Z,1.73
2022-09-20T14:15:39.034Z,1.65
2022-09-20T14:18:08.914Z,0.63
2022-09-20T14:20:36.206Z,0.70
2022-09-20T14:23:04.084Z,0.90
2022-09-20T14:25:32.294Z,2.15
2022-09-20T14:28:18.706Z,3.28
2022-09-20T14:30:47.748Z,0.70
2022-09-20T14:33:20.692Z,1.83
2022-09-20T14:35:50.655Z,1.75
2022-09-20T14:38:24.872Z,1.80
2022-09-20T14:43:22.580Z,2.13
2022-09-20T14:46:03.315Z,2.13
2022-09-20T14:48:36.647Z,1.55
2022-09-20T14:51:16.394Z,1.40
2022-09-20T14:53:52.815Z,1.60
2022-09-20T14:56:33.404Z,1.85
2022-09-20T14:59:21.528Z,1.00
2022-09-20T15:02:06.950Z,1.10
2022-09-20T15:04:37.796Z,1.30
2022-09-20T15:07:07.085Z,1.20
2022-09-20T15:09:35.305Z,1.27
2022-09-20T15:12:12.016Z,1.67
2022-09-20T15:14:40.705Z,1.48
2022-09-20T15:17:11.311Z,1.30
2022-09-20T15:19:38.395Z,1.65
2022-09-20T15:22:05.512Z,0.90
2022-09-20T15:24:34.888Z,0.90
2022-09-20T15:27:02.050Z,1.13
2022-09-20T15:29:29.305Z,1.05
2022-09-20T15:31:56.330Z,1.13
2022-09-20T15:34:23.752Z,0.73
2022-09-20T15:36:51.186Z,1.45
2022-09-20T15:39:18.295Z,1.92
2022-09-20T15:41:46.931Z,1.92
2022-09-20T15:44:16.540Z,1.17
2022-09-20T15:46:43.619Z,1.27
2022-09-20T15:49:12.391Z,1.42
2022-09-20T15:51:39.527Z,2.33
2022-09-20T15:54:07.870Z,1.20
2022-09-20T15:56:40.211Z,4.03
2022-09-20T15:59:10.823Z,6.40
2022-09-20T16:01:43.444Z,4.38
2022-09-20T16:04:19.453Z,2.33
2022-09-20T16:06:49.504Z,1.65
2022-09-20T16:09:18.291Z,3.58
2022-09-20T16:11:47.072Z,3.70
2022-09-20T16:14:14.123Z,1.75
2022-09-20T16:16:41.311Z,2.78
2022-09-20T16:19:23.741Z,2.15
2022-09-20T16:21:58.113Z,2.42
2022-09-20T16:24:34.427Z,2.63
2022-09-20T16:27:03.431Z,1.15
2022-09-20T16:29:31.210Z,2.30
2022-09-20T16:32:00.314Z,2.42
2022-09-20T16:34:35.466Z,3.88
2022-09-20T16:37:11.748Z,1.33
2022-09-20T16:39:40.379Z,1.63
2022-09-20T16:42:11.996Z,1.60
2022-09-20T16:44:41.958Z,1.75
2022-09-20T16:47:12.894Z,2.05
2022-09-20T16:49:40.002Z,1.25
2022-09-20T16:52:08.929Z,2.05
2022-09-20T16:54:36.106Z,1.77
2022-09-20T16:57:03.489Z,2.58
2022-09-20T16:59:30.729Z,2.10
2022-09-20T17:01:58.382Z,3.05
2022-09-20T17:04:25.533Z,1.50
2022-09-20T17:06:53.656Z,1.67
2022-09-20T17:09:20.993Z,1.80
2022-09-20T17:11:50.124Z,3.30
2022-09-20T17:14:19.721Z,1.83
2022-09-20T17:16:47.815Z,2.20
2022-09-20T17:19:18.411Z,2.00
2022-09-20T17:21:51.187Z,1.17
2022-09-20T17:24:21.265Z,2.00
2022-09-20T17:26:50.265Z,2.83
2022-09-20T17:29:18.894Z,2.83
2022-09-20T17:31:54.055Z,3.67
2022-09-20T17:34:22.748Z,4.20
2022-09-20T17:36:50.878Z,2.70
2022-09-20T17:39:18.608Z,2.85
2022-09-20T17:41:47.755Z,2.33
2022-09-20T17:44:15.741Z,4.07
2022-09-20T17:46:44.775Z,1.90
2022-09-20T17:49:22.985Z,2.67
2022-09-20T17:51:52.555Z,4.60
2022-09-20T17:54:20.273Z,5.13
2022-09-20T17:56:49.459Z,3.25
2022-09-20T17:59:17.865Z,2.85
2022-09-20T18:01:48.069Z,3.10
2022-09-20T18:04:15.902Z,2.95
2022-09-20T18:06:49.110Z,3.13
2022-09-20T18:09:19.346Z,6.47
2022-09-20T18:11:49.666Z,4.47
2022-09-20T18:14:23.213Z,5.10
2022-09-20T18:16:56.085Z,3.67
2022-09-20T18:19:23.329Z,3.92
2022-09-20T18:21:51.801Z,2.75
2022-09-20T18:24:18.888Z,1.92
2022-09-20T18:26:45.905Z,3.38
2022-09-20T18:29:17.429Z,2.10
2022-09-20T18:31:54.311Z,2.88
2022-09-20T18:34:23.760Z,2.95
2022-09-20T18:36:56.376Z,4.30
2022-09-20T18:39:25.611Z,5.88
2022-09-20T18:41:53.345Z,5.72
2022-09-20T18:44:21.843Z,5.07
2022-09-20T18:46:50.748Z,3.63
2022-09-20T18:49:17.848Z,3.40
2022-09-20T18:51:45.501Z,5.07
2022-09-20T18:54:12.845Z,2.70
2022-09-20T18:56:45.100Z,3.20
2022-09-20T18:59:19.461Z,2.55
2022-09-20T19:01:55.587Z,2.80
2022-09-20T19:05:00.475Z,4.22
2022-09-20T19:07:27.847Z,3.58
2022-09-20T19:10:06.825Z,5.47
2022-09-20T19:12:48.734Z,4.65
2022-09-20T19:15:39.477Z,2.55
2022-09-20T19:18:27.288Z,2.20
2022-09-20T19:21:19.952Z,1.73
2022-09-20T19:24:14.418Z,2.47
2022-09-20T19:26:42.133Z,2.58
2022-09-20T19:29:25.267Z,2.47
2022-09-20T19:31:55.521Z,2.83
2022-09-20T19:34:32.358Z,2.45
2022-09-20T19:37:19.099Z,3.00
2022-09-20T19:40:03.942Z,2.72
2022-09-20T19:42:49.365Z,1.70
2022-09-20T19:45:44.607Z,10.70
2022-09-20T19:48:23.944Z,14.45
2022-09-20T19:50:53.714Z,4.53
2022-09-20T19:53:24.158Z,2.17
2022-09-20T19:56:00.123Z,4.68
2022-09-20T19:58:28.363Z,4.13
2022-09-20T20:00:57.857Z,2.20
2022-09-20T20:03:27.408Z,2.00
2022-09-20T20:06:11.305Z,1.92
2022-09-20T20:08:54.534Z,3.30
2022-09-20T20:11:56.775Z,2.50
2022-09-20T20:14:33.417Z,2.47
2022-09-20T20:17:13.774Z,2.67
2022-09-20T20:19:47.038Z,1.88
2022-09-20T20:22:20.087Z,1.92
2022-09-20T20:24:53.051Z,2.58
2022-09-20T20:27:20.890Z,1.90
2022-09-20T20:29:49.247Z,3.17
2022-09-20T20:32:16.850Z,2.63
2022-09-20T20:34:44.030Z,4.78
2022-09-20T20:37:11.107Z,2.20
2022-09-20T20:39:38.194Z,1.92
2022-09-20T20:42:06.323Z,1.85
2022-09-20T20:44:37.072Z,1.77
2022-09-20T20:47:06.055Z,3.00
2022-09-20T20:49:34.614Z,2.00
2022-09-20T20:52:04.853Z,1.98
2022-09-20T20:54:32.731Z,2.60
2022-09-20T20:57:00.119Z,2.58
2022-09-20T20:59:27.113Z,1.60
2022-09-20T21:01:54.294Z,2.33
2022-09-20T21:04:21.709Z,1.88
2022-09-20T21:06:50.136Z,3.22
2022-09-20T21:09:17.230Z,2.30
2022-09-20T21:11:44.896Z,3.90
2022-09-20T21:14:12.791Z,3.83
2022-09-20T21:16:43.075Z,3.33
2022-09-20T21:19:14.825Z,2.65
2022-09-20T21:21:44.217Z,4.38
2022-09-20T21:24:14.717Z,2.80
2022-09-20T21:26:42.085Z,6.13
2022-09-20T21:29:14.400Z,2.03
2022-09-20T21:31:45.313Z,2.60
2022-09-20T21:34:15.354Z,2.97
2022-09-20T21:36:44.658Z,2.35
2022-09-20T21:39:12.465Z,1.98
2022-09-20T21:41:40.164Z,3.05
2022-09-20T21:44:10.597Z,1.80
2022-09-20T21:46:42.467Z,2.50
2022-09-20T21:49:11.428Z,3.25
2022-09-20T21:51:41.385Z,3.25
2022-09-20T21:54:08.955Z,3.67
2022-09-20T21:56:37.684Z,3.65
2022-09-20T21:59:06.219Z,3.25
2022-09-20T22:01:39.290Z,2.50
2022-09-20T22:04:09.400Z,4.82
2022-09-20T22:06:38.858Z,2.50
2022-09-20T22:09:14.577Z,1.58
2022-09-20T22:11:47.196Z,2.28
2022-09-20T22:14:16.245Z,2.40
2022-09-20T22:16:45.177Z,4.68
2022-09-20T22:19:15.014Z,1.80
2022-09-20T22:21:47.092Z,1.98
2022-09-20T22:24:15.545Z,2.45
2022-09-20T22:26:45.120Z,2.70
2022-09-20T22:29:12.714Z,1.73
2022-09-20T22:31:44.970Z,3.55
2022-09-20T22:34:21.166Z,4.43
2022-09-20T22:36:49.139Z,2.88
2022-09-20T22:39:17.152Z,1.63
2022-09-20T22:41:44.921Z,2.35
2022-09-20T22:44:12.159Z,2.95
2022-09-20T22:46:39.915Z,2.97
2022-09-20T22:49:08.584Z,3.60
2022-09-20T22:51:36.667Z,3.38
2022-09-20T22:54:09.397Z,3.28
2022-09-20T22:56:37.286Z,1.98
2022-09-20T22:59:07.193Z,3.65
2022-09-20T23:01:41.171Z,3.22
2022-09-20T23:04:10.882Z,3.42
2022-09-20T23:06:54.814Z,2.50
2022-09-20T23:09:24.204Z,3.22
2022-09-20T23:11:51.373Z,2.42
2022-09-20T23:14:20.152Z,3.05
2022-09-20T23:16:47.797Z,3.17
2022-09-20T23:19:15.409Z,2.97
2022-09-20T23:21:43.831Z,4.78
2022-09-20T23:24:13.073Z,2.20
2022-09-20T23:26:41.537Z,2.55
2022-09-20T23:29:13.842Z,2.42
2022-09-20T23:31:45.814Z,3.47
2022-09-20T23:34:15.648Z,2.50
2022-09-20T23:36:43.639Z,2.50
2022-09-20T23:39:12.415Z,2.35
2022-09-20T23:41:41.424Z,2.70
2022-09-20T23:44:09.902Z,2.13
2022-09-20T23:46:37.412Z,2.75
2022-09-20T23:49:05.162Z,2.72
2022-09-20T23:51:32.736Z,3.15
2022-09-20T23:53:59.873Z,2.63
2022-09-20T23:56:27.489Z,6.40
2022-09-20T23:58:54.637Z,3.25
